createdAt,value
2022-10-10T00:01:57.514Z,11.69
2022-10-10T00:04:26.787Z,11.66
2022-10-10T00:06:54.669Z,11.60
2022-10-10T00:09:22.971Z,11.43
2022-10-10T00:11:50.833Z,11.69
2022-10-10T00:14:18.720Z,11.71
2022-10-10T00:16:46.587Z,11.70
2022-10-10T00:19:14.801Z,11.59
2022-10-10T00:21:44.048Z,11.66
2022-10-10T00:24:11.895Z,11.71
2022-10-10T00:26:39.722Z,11.65
2022-10-10T00:29:07.575Z,11.48
2022-10-10T00:31:35.450Z,11.64
2022-10-10T00:34:03.295Z,11.76
2022-10-10T00:36:31.216Z,11.78
2022-10-10T00:39:01.506Z,11.63
2022-10-10T00:41:29.808Z,11.71
2022-10-10T00:44:09.297Z,11.61
2022-10-10T00:46:37.279Z,11.68
2022-10-10T00:49:07.273Z,11.67
2022-10-10T00:51:35.377Z,11.71
2022-10-10T00:54:07.956Z,11.73
2022-10-10T00:56:41.127Z,11.80
2022-10-10T00:59:11.253Z,11.86
2022-10-10T01:01:39.415Z,11.83
2022-10-10T01:04:07.584Z,11.73
2022-10-10T01:06:35.929Z,11.39
2022-10-10T01:09:05.196Z,11.42
2022-10-10T01:11:46.025Z,11.30
2022-10-10T01:14:21.212Z,11.08
2022-10-10T01:16:59.136Z,11.03
2022-10-10T01:19:56.870Z,10.96
2022-10-10T01:22:33.796Z,11.03
2022-10-10T01:25:18.325Z,10.93
2022-10-10T01:27:51.894Z,10.78
2022-10-10T01:30:23.739Z,10.84
2022-10-10T01:32:55.072Z,10.91
2022-10-10T01:35:35.296Z,10.95
2022-10-10T01:38:15.351Z,11.02
2022-10-10T01:40:48.589Z,11.04
2022-10-10T01:43:17.988Z,10.93
2022-10-10T01:45:48.273Z,10.91
2022-10-10T01:48:20.976Z,10.87
2022-10-10T01:51:05.271Z,10.98
2022-10-10T01:53:42.113Z,10.97
2022-10-10T01:56:14.915Z,10.98
2022-10-10T01:59:09.499Z,10.91
2022-10-10T02:01:48.007Z,10.85
2022-10-10T02:04:24.496Z,10.79
2022-10-10T02:06:56.647Z,10.79
2022-10-10T02:09:30.231Z,10.82
2022-10-10T02:12:00.789Z,10.77
2022-10-10T02:14:34.256Z,10.74
2022-10-10T02:17:05.297Z,10.67
2022-10-10T02:19:33.765Z,10.79
2022-10-10T02:22:03.119Z,10.77
2022-10-10T02:24:31.092Z,10.63
2022-10-10T02:27:06.196Z,10.61
2022-10-10T02:29:38.117Z,10.72
2022-10-10T02:32:12.580Z,10.71
2022-10-10T02:34:46.657Z,10.67
2022-10-10T02:37:16.705Z,10.64
2022-10-10T02:39:47.969Z,10.60
2022-10-10T02:42:19.011Z,10.57
2022-10-10T02:44:48.123Z,10.57
2022-10-10T02:47:17.888Z,10.40
2022-10-10T02:49:45.983Z,10.73
2022-10-10T02:52:16.052Z,10.70
2022-10-10T02:54:44.288Z,10.63
2022-10-10T02:57:12.797Z,10.79
2022-10-10T02:59:40.891Z,10.92
2022-10-10T03:02:09.052Z,10.85
2022-10-10T03:04:38.745Z,10.71
2022-10-10T03:07:07.106Z,10.80
2022-10-10T03:09:35.117Z,10.74
2022-10-10T03:12:03.207Z,10.65
2022-10-10T03:14:31.208Z,10.59
2022-10-10T03:16:59.078Z,10.62
2022-10-10T03:19:27.066Z,10.51
2022-10-10T03:21:56.299Z,10.66
2022-10-10T03:24:24.164Z,10.61
2022-10-10T03:26:52.028Z,10.67
2022-10-10T03:29:19.916Z,10.58
2022-10-10T03:31:47.782Z,10.31
2022-10-10T03:34:15.652Z,10.46
2022-10-10T03:36:43.637Z,10.46
2022-10-10T03:39:12.878Z,10.39
2022-10-10T03:41:40.690Z,10.32
2022-10-10T03:44:08.547Z,10.27
2022-10-10T03:46:36.399Z,10.19
2022-10-10T03:49:04.815Z,10.16
2022-10-10T03:51:32.641Z,10.08
2022-10-10T03:54:00.571Z,10.04
2022-10-10T03:56:29.814Z,10.01
2022-10-10T03:59:00.589Z,9.99
2022-10-10T04:01:28.732Z,9.94
2022-10-10T04:03:56.768Z,9.88
2022-10-10T04:06:24.640Z,9.84
2022-10-10T04:08:52.598Z,9.82
2022-10-10T04:11:20.605Z,9.68
2022-10-10T04:13:49.815Z,9.82
2022-10-10T04:16:17.682Z,9.79
2022-10-10T04:18:45.540Z,9.75
2022-10-10T04:21:13.581Z,9.80
2022-10-10T04:23:41.629Z,9.84
2022-10-10T04:26:09.934Z,9.89
2022-10-10T04:28:37.869Z,9.80
2022-10-10T04:31:07.360Z,10.00
2022-10-10T04:33:35.260Z,9.94
2022-10-10T04:36:03.120Z,9.87
2022-10-10T04:38:30.968Z,9.83
2022-10-10T04:40:58.856Z,9.88
2022-10-10T04:43:26.801Z,9.94
2022-10-10T04:45:56.812Z,10.00
2022-10-10T04:48:26.780Z,10.17
2022-10-10T04:50:55.086Z,10.44
2022-10-10T04:53:23.367Z,10.76
2022-10-10T04:55:51.352Z,11.00
2022-10-10T04:58:19.648Z,11.15
2022-10-10T05:00:52.427Z,11.13
2022-10-10T05:03:20.329Z,11.54
2022-10-10T05:05:49.727Z,11.70
2022-10-10T05:08:18.292Z,12.04
2022-10-10T05:10:47.790Z,12.22
2022-10-10T05:13:17.692Z,12.04
2022-10-10T05:15:45.615Z,12.40
2022-10-10T05:18:13.470Z,12.62
2022-10-10T05:20:43.912Z,12.77
2022-10-10T05:23:13.160Z,12.95
2022-10-10T05:25:41.428Z,13.18
2022-10-10T05:28:09.363Z,13.32
2022-10-10T05:30:37.292Z,13.62
2022-10-10T05:33:05.409Z,13.68
2022-10-10T05:35:33.307Z,13.28
2022-10-10T05:38:01.177Z,14.09
2022-10-10T05:40:30.385Z,14.26
2022-10-10T05:42:58.310Z,14.28
2022-10-10T05:45:26.184Z,14.35
2022-10-10T05:47:54.130Z,14.62
2022-10-10T05:50:31.152Z,14.72
2022-10-10T05:52:59.055Z,14.99
2022-10-10T05:55:27.055Z,15.47
2022-10-10T05:57:56.334Z,15.48
2022-10-10T06:00:24.542Z,14.59
2022-10-10T06:02:52.827Z,14.54
2022-10-10T06:05:20.969Z,15.12
2022-10-10T06:08:09.383Z,15.32
2022-10-10T06:10:37.231Z,15.48
2022-10-10T06:13:06.467Z,15.94
2022-10-10T06:15:34.515Z,16.02
2022-10-10T06:18:02.488Z,15.99
2022-10-10T06:20:30.480Z,16.06
2022-10-10T06:22:58.467Z,15.91
2022-10-10T06:25:40.013Z,15.69
2022-10-10T06:28:10.197Z,15.57
2022-10-10T06:30:41.258Z,15.59
2022-10-10T06:33:09.159Z,16.00
2022-10-10T06:35:40.213Z,16.25
2022-10-10T06:38:08.237Z,16.21
2022-10-10T06:40:36.128Z,16.02
2022-10-10T06:43:04.644Z,15.71
2022-10-10T06:45:37.496Z,15.79
2022-10-10T06:48:05.756Z,15.33
2022-10-10T06:50:33.771Z,15.31
2022-10-10T06:53:01.677Z,15.68
2022-10-10T06:55:29.580Z,15.80
2022-10-10T06:57:58.151Z,15.72
2022-10-10T07:00:26.536Z,15.58
2022-10-10T07:02:55.858Z,15.43
2022-10-10T07:05:23.716Z,15.72
2022-10-10T07:07:53.432Z,15.78
2022-10-10T07:10:21.512Z,16.10
2022-10-10T07:12:49.372Z,15.96
2022-10-10T07:15:17.402Z,16.02
2022-10-10T07:17:47.352Z,16.24
2022-10-10T07:20:19.839Z,16.36
2022-10-10T07:22:47.701Z,16.51
2022-10-10T07:25:15.764Z,17.01
2022-10-10T07:27:43.636Z,17.19
2022-10-10T07:30:12.885Z,17.14
2022-10-10T07:32:40.763Z,16.95
2022-10-10T07:35:09.391Z,16.76
2022-10-10T07:37:38.629Z,16.92
2022-10-10T07:40:08.586Z,17.03
2022-10-10T07:42:36.577Z,17.18
2022-10-10T07:45:05.283Z,17.36
2022-10-10T07:47:33.181Z,17.55
2022-10-10T07:50:01.044Z,17.90
2022-10-10T07:52:28.908Z,18.09
2022-10-10T07:54:58.199Z,17.93
2022-10-10T07:57:26.042Z,17.93
2022-10-10T07:59:53.992Z,18.15
2022-10-10T08:02:21.851Z,17.76
2022-10-10T08:04:50.101Z,18.04
2022-10-10T08:07:19.579Z,18.22
2022-10-10T08:09:47.424Z,18.49
2022-10-10T08:12:16.708Z,18.33
2022-10-10T08:14:44.624Z,18.02
2022-10-10T08:17:12.487Z,17.82
2022-10-10T08:19:40.363Z,18.10
2022-10-10T08:22:08.395Z,18.35
2022-10-10T08:24:36.252Z,18.36
2022-10-10T08:27:04.152Z,18.42
2022-10-10T08:29:34.631Z,18.70
2022-10-10T08:32:02.831Z,18.87
2022-10-10T08:34:30.703Z,18.83
2022-10-10T08:36:58.615Z,18.89
2022-10-10T08:39:26.461Z,19.07
2022-10-10T08:41:57.796Z,19.14
2022-10-10T08:44:31.638Z,19.04
2022-10-10T08:47:04.407Z,18.73
2022-10-10T08:49:36.292Z,18.84
2022-10-10T08:52:09.544Z,19.11
2022-10-10T08:54:39.016Z,19.58
2022-10-10T08:57:19.334Z,19.71
2022-10-10T08:59:47.533Z,19.58
2022-10-10T09:02:43.918Z,19.30
2022-10-10T09:05:21.504Z,19.51
2022-10-10T09:08:13.513Z,19.62
2022-10-10T09:10:54.462Z,19.53
2022-10-10T09:13:33.012Z,19.70
2022-10-10T09:16:03.659Z,20.08
2022-10-10T09:18:49.976Z,19.98
2022-10-10T09:21:21.589Z,20.21
2022-10-10T09:23:55.012Z,20.20
2022-10-10T09:26:27.184Z,20.19
2022-10-10T09:29:01.308Z,20.25
2022-10-10T09:31:35.108Z,20.04
2022-10-10T09:34:13.501Z,19.86
2022-10-10T09:36:41.583Z,19.78
2022-10-10T09:39:20.578Z,19.94
2022-10-10T09:41:55.405Z,18.93
2022-10-10T09:44:23.999Z,19.58
2022-10-10T09:46:52.423Z,19.81
2022-10-10T09:49:22.440Z,19.86
2022-10-10T09:51:51.116Z,19.67
2022-10-10T09:54:20.772Z,19.67
2022-10-10T09:56:53.199Z,19.74
2022-10-10T09:59:46.149Z,19.84
2022-10-10T10:02:15.962Z,19.69
2022-10-10T10:04:45.929Z,19.55
2022-10-10T10:07:29.427Z,19.73
2022-10-10T10:09:59.234Z,19.51
2022-10-10T10:12:30.483Z,19.65
2022-10-10T10:15:04.487Z,19.93
2022-10-10T10:17:32.492Z,19.90
2022-10-10T10:20:01.685Z,19.91
2022-10-10T10:22:35.546Z,19.83
2022-10-10T10:25:31.922Z,19.92
2022-10-10T10:28:17.994Z,20.09
2022-10-10T10:30:46.548Z,20.29
2022-10-10T10:33:26.306Z,20.29
2022-10-10T10:36:01.810Z,20.49
2022-10-10T10:38:42.947Z,20.60
2022-10-10T10:41:18.676Z,20.61
2022-10-10T10:44:02.639Z,20.63
2022-10-10T10:46:45.887Z,20.63
2022-10-10T10:49:18.791Z,19.72
2022-10-10T10:52:04.376Z,20.68
2022-10-10T10:54:45.633Z,20.68
2022-10-10T10:57:32.130Z,20.63
2022-10-10T11:00:22.155Z,20.34
2022-10-10T11:03:35.050Z,20.15
2022-10-10T11:06:06.860Z,20.09
2022-10-10T11:09:02.699Z,20.30
2022-10-10T11:11:42.729Z,20.29
2022-10-10T11:14:26.708Z,20.27
2022-10-10T11:17:00.212Z,20.18
2022-10-10T11:19:33.426Z,20.17
2022-10-10T11:22:07.324Z,20.16
2022-10-10T11:24:45.926Z,20.12
2022-10-10T11:27:20.199Z,19.92
2022-10-10T11:29:58.674Z,19.88
2022-10-10T11:32:31.826Z,19.88
2022-10-10T11:35:17.484Z,19.40
2022-10-10T11:37:51.120Z,19.70
2022-10-10T11:40:43.826Z,19.76
2022-10-10T11:43:20.789Z,19.76
2022-10-10T11:45:56.755Z,19.81
2022-10-10T11:48:37.779Z,18.79
2022-10-10T11:51:19.472Z,19.88
2022-10-10T11:53:52.772Z,19.97
2022-10-10T11:56:30.270Z,20.08
2022-10-10T11:59:03.490Z,20.06
2022-10-10T12:01:34.766Z,20.00
2022-10-10T12:04:02.635Z,20.08
2022-10-10T12:06:36.613Z,20.24
2022-10-10T12:09:10.957Z,20.24
2022-10-10T12:11:44.090Z,20.17
2022-10-10T12:14:18.064Z,20.21
2022-10-10T12:16:46.595Z,20.23
2022-10-10T12:19:19.724Z,20.14
2022-10-10T12:21:57.165Z,20.36
2022-10-10T12:24:26.799Z,20.47
2022-10-10T12:27:28.307Z,20.51
2022-10-10T12:30:18.035Z,20.55
2022-10-10T12:32:47.966Z,20.70
2022-10-10T12:35:32.035Z,20.70
2022-10-10T12:38:15.521Z,20.83
2022-10-10T12:41:13.949Z,21.13
2022-10-10T12:44:13.487Z,21.36
2022-10-10T12:46:42.124Z,21.63
2022-10-10T12:49:21.606Z,21.53
2022-10-10T12:52:04.340Z,21.29
2022-10-10T12:54:38.974Z,20.23
2022-10-10T12:57:15.473Z,21.37
2022-10-10T12:59:44.955Z,21.14
2022-10-10T13:02:19.563Z,21.18
2022-10-10T13:04:49.555Z,21.14
2022-10-10T13:07:22.143Z,21.24
2022-10-10T13:09:51.941Z,21.53
2022-10-10T13:12:25.860Z,21.59
2022-10-10T13:14:55.744Z,21.55
2022-10-10T13:17:26.271Z,21.40
2022-10-10T13:19:55.372Z,21.09
2022-10-10T13:22:24.438Z,20.91
2022-10-10T13:24:53.582Z,20.85
2022-10-10T13:27:23.771Z,20.60
2022-10-10T13:29:53.004Z,20.78
2022-10-10T13:32:26.646Z,20.65
2022-10-10T13:34:58.199Z,20.54
2022-10-10T13:37:26.980Z,20.41
2022-10-10T13:39:55.369Z,20.26
2022-10-10T13:42:30.994Z,20.34
2022-10-10T13:45:00.383Z,20.15
2022-10-10T13:47:54.672Z,20.24
2022-10-10T13:50:28.786Z,20.12
2022-10-10T13:53:25.460Z,20.10
2022-10-10T13:56:01.191Z,20.07
2022-10-10T13:58:31.819Z,20.11
2022-10-10T14:01:02.625Z,20.02
2022-10-10T14:03:35.105Z,20.00
2022-10-10T14:06:03.051Z,19.94
2022-10-10T14:08:34.616Z,19.61
2022-10-10T14:11:05.536Z,19.94
2022-10-10T14:13:35.562Z,19.85
2022-10-10T14:16:22.904Z,19.81
2022-10-10T14:18:52.613Z,19.76
2022-10-10T14:21:20.852Z,19.18
2022-10-10T14:23:48.698Z,19.65
2022-10-10T14:26:18.991Z,19.66
2022-10-10T14:28:47.453Z,19.58
2022-10-10T14:31:15.359Z,19.55
2022-10-10T14:33:43.232Z,19.47
2022-10-10T14:36:14.384Z,19.43
2022-10-10T14:38:42.247Z,19.46
2022-10-10T14:41:13.007Z,19.43
2022-10-10T14:43:45.519Z,19.41
2022-10-10T14:46:18.378Z,19.43
2022-10-10T14:48:46.401Z,19.40
2022-10-10T14:51:33.894Z,19.05
2022-10-10T14:54:11.179Z,19.33
2022-10-10T14:57:08.445Z,19.16
2022-10-10T14:59:48.041Z,19.21
2022-10-10T15:02:18.650Z,19.14
2022-10-10T15:04:46.571Z,19.09
2022-10-10T15:07:16.369Z,18.98
2022-10-10T15:10:09.568Z,19.02
2022-10-10T15:12:32.673Z,18.96
2022-10-10T15:15:02.901Z,18.81
2022-10-10T15:17:33.757Z,18.85
2022-10-10T15:20:01.889Z,18.81
2022-10-10T15:22:31.589Z,18.37
2022-10-10T15:24:59.914Z,18.74
2022-10-10T15:27:28.368Z,18.68
2022-10-10T15:29:58.096Z,18.57
2022-10-10T15:32:26.717Z,18.30
2022-10-10T15:34:54.682Z,18.52
2022-10-10T15:37:26.548Z,18.42
2022-10-10T15:39:55.821Z,18.42
2022-10-10T15:42:23.776Z,18.34
2022-10-10T15:44:52.353Z,18.26
2022-10-10T15:47:21.643Z,18.11
2022-10-10T15:49:49.876Z,18.13
2022-10-10T15:52:18.316Z,18.13
2022-10-10T15:54:49.682Z,18.08
2022-10-10T15:57:19.275Z,18.03
2022-10-10T15:59:47.792Z,17.98
2022-10-10T16:02:15.972Z,17.90
2022-10-10T16:04:43.854Z,17.84
2022-10-10T16:07:26.890Z,17.78
2022-10-10T16:09:57.895Z,17.72
2022-10-10T16:12:27.313Z,17.67
2022-10-10T16:14:55.487Z,17.63
2022-10-10T16:17:23.949Z,17.60
2022-10-10T16:19:52.393Z,17.55
2022-10-10T16:22:20.632Z,17.37
2022-10-10T16:25:17.265Z,17.38
2022-10-10T16:27:38.720Z,17.37
2022-10-10T16:30:08.238Z,17.05
2022-10-10T16:32:41.790Z,16.30
2022-10-10T16:35:11.231Z,17.26
2022-10-10T16:37:39.323Z,17.21
2022-10-10T16:40:08.344Z,17.15
2022-10-10T16:42:36.320Z,17.11
2022-10-10T16:45:06.653Z,17.06
2022-10-10T16:47:34.614Z,17.05
2022-10-10T16:50:03.100Z,16.91
2022-10-10T16:52:33.001Z,16.90
2022-10-10T16:55:00.881Z,16.87
2022-10-10T16:57:28.774Z,16.82
2022-10-10T16:59:56.654Z,16.74
2022-10-10T17:02:25.976Z,16.66
2022-10-10T17:04:53.822Z,16.59
2022-10-10T17:07:21.821Z,16.40
2022-10-10T17:09:49.720Z,16.31
2022-10-10T17:12:17.916Z,16.22
2022-10-10T17:14:45.861Z,16.18
2022-10-10T17:17:14.124Z,16.16
2022-10-10T17:19:43.583Z,16.13
2022-10-10T17:22:11.521Z,16.09
2022-10-10T17:24:39.394Z,16.04
2022-10-10T17:27:07.394Z,15.78
2022-10-10T17:29:35.324Z,15.95
2022-10-10T17:32:06.507Z,15.87
2022-10-10T17:34:35.230Z,15.76
2022-10-10T17:37:04.998Z,15.68
2022-10-10T17:39:33.090Z,15.62
2022-10-10T17:42:01.123Z,15.59
2022-10-10T17:44:29.149Z,15.55
2022-10-10T17:46:57.051Z,15.48
2022-10-10T17:49:25.113Z,15.33
2022-10-10T17:51:53.013Z,15.36
2022-10-10T17:54:23.228Z,15.34
2022-10-10T17:56:51.295Z,15.29
2022-10-10T17:59:19.183Z,15.23
2022-10-10T18:01:47.029Z,15.19
2022-10-10T18:04:16.552Z,15.24
2022-10-10T18:06:44.570Z,14.92
2022-10-10T18:09:12.608Z,15.16
2022-10-10T18:11:41.867Z,15.12
2022-10-10T18:14:09.851Z,15.10
2022-10-10T18:16:38.112Z,15.11
2022-10-10T18:19:08.149Z,15.06
2022-10-10T18:21:36.259Z,15.03
2022-10-10T18:24:04.435Z,14.97
2022-10-10T18:26:33.706Z,14.82
2022-10-10T18:29:03.052Z,14.95
2022-10-10T18:31:33.149Z,13.89
2022-10-10T18:34:01.762Z,15.04
2022-10-10T18:36:32.077Z,14.95
2022-10-10T18:39:00.764Z,14.92
2022-10-10T18:41:34.231Z,14.90
2022-10-10T18:44:04.867Z,14.87
2022-10-10T18:46:32.927Z,14.89
2022-10-10T18:49:02.151Z,14.96
2022-10-10T18:51:31.223Z,14.55
2022-10-10T18:54:02.208Z,14.90
2022-10-10T18:56:31.497Z,15.05
2022-10-10T18:59:02.200Z,14.98
2022-10-10T19:01:35.241Z,14.90
2022-10-10T19:04:04.605Z,14.70
2022-10-10T19:06:32.671Z,14.83
2022-10-10T19:09:02.503Z,14.81
2022-10-10T19:11:32.295Z,14.88
2022-10-10T19:14:01.407Z,14.91
2022-10-10T19:16:29.549Z,14.89
2022-10-10T19:18:59.749Z,14.88
2022-10-10T19:21:29.862Z,14.90
2022-10-10T19:23:59.833Z,14.91
2022-10-10T19:26:33.112Z,14.93
2022-10-10T19:29:06.418Z,14.59
2022-10-10T19:31:34.743Z,14.93
2022-10-10T19:34:04.138Z,14.93
2022-10-10T19:36:32.011Z,14.96
2022-10-10T19:39:00.924Z,14.93
2022-10-10T19:41:29.798Z,14.93
2022-10-10T19:43:58.710Z,14.86
2022-10-10T19:46:28.004Z,14.80
2022-10-10T19:48:58.931Z,14.70
2022-10-10T19:51:29.725Z,14.64
2022-10-10T19:53:57.732Z,14.59
2022-10-10T19:56:26.980Z,14.56
2022-10-10T19:58:56.043Z,14.48
2022-10-10T20:01:29.100Z,14.20
2022-10-10T20:03:57.904Z,14.37
2022-10-10T20:06:26.055Z,14.33
2022-10-10T20:08:55.444Z,14.29
2022-10-10T20:11:26.250Z,14.26
2022-10-10T20:13:55.450Z,14.19
2022-10-10T20:16:24.473Z,14.23
2022-10-10T20:18:52.405Z,14.21
2022-10-10T20:21:23.713Z,13.99
2022-10-10T20:23:51.792Z,14.08
2022-10-10T20:26:23.438Z,14.10
2022-10-10T20:28:52.347Z,14.16
2022-10-10T20:31:22.398Z,14.18
2022-10-10T20:33:51.414Z,14.18
2022-10-10T20:36:21.235Z,14.17
2022-10-10T20:38:53.784Z,14.13
2022-10-10T20:41:24.545Z,14.10
2022-10-10T20:43:58.271Z,14.10
2022-10-10T20:46:27.683Z,14.12
2022-10-10T20:48:56.160Z,14.12
2022-10-10T20:51:24.356Z,14.10
2022-10-10T20:53:56.987Z,14.10
2022-10-10T20:56:26.963Z,14.03
2022-10-10T20:58:55.015Z,13.86
2022-10-10T21:01:25.087Z,14.17
2022-10-10T21:03:53.367Z,14.17
2022-10-10T21:06:23.922Z,13.90
2022-10-10T21:08:52.400Z,14.17
2022-10-10T21:11:20.979Z,14.11
2022-10-10T21:13:56.355Z,14.00
2022-10-10T21:16:26.154Z,14.15
2022-10-10T21:18:58.055Z,14.13
2022-10-10T21:21:27.061Z,14.11
2022-10-10T21:23:56.488Z,14.10
2022-10-10T21:26:26.621Z,14.05
2022-10-10T21:28:56.491Z,13.97
2022-10-10T21:31:26.317Z,13.98
2022-10-10T21:33:54.613Z,14.00
2022-10-10T21:36:24.228Z,13.96
2022-10-10T21:38:52.116Z,13.95
2022-10-10T21:41:21.588Z,13.95
2022-10-10T21:43:52.210Z,13.93
2022-10-10T21:46:23.458Z,13.95
2022-10-10T21:48:52.310Z,13.93
2022-10-10T21:51:20.635Z,13.93
2022-10-10T21:53:49.177Z,13.94
2022-10-10T21:56:17.808Z,13.92
2022-10-10T21:58:46.316Z,13.87
2022-10-10T22:01:16.486Z,13.83
2022-10-10T22:03:47.205Z,13.82
2022-10-10T22:06:18.172Z,13.77
2022-10-10T22:08:47.492Z,13.73
2022-10-10T22:11:17.573Z,13.73
2022-10-10T22:13:45.511Z,13.75
2022-10-10T22:16:13.545Z,13.77
2022-10-10T22:18:41.920Z,13.79
2022-10-10T22:21:13.812Z,13.55
2022-10-10T22:23:41.998Z,13.76
2022-10-10T22:26:11.412Z,13.82
2022-10-10T22:28:39.771Z,13.85
2022-10-10T22:31:08.449Z,13.85
2022-10-10T22:33:36.376Z,13.85
2022-10-10T22:36:05.110Z,13.83
2022-10-10T22:38:37.039Z,13.84
2022-10-10T22:41:04.902Z,13.84
2022-10-10T22:43:32.862Z,13.84
2022-10-10T22:46:00.867Z,13.82
2022-10-10T22:48:28.950Z,13.82
2022-10-10T22:51:01.616Z,13.74
2022-10-10T22:53:29.903Z,13.81
2022-10-10T22:55:59.547Z,13.83
2022-10-10T22:58:27.584Z,13.83
2022-10-10T23:00:55.517Z,13.86
2022-10-10T23:03:23.426Z,13.90
2022-10-10T23:05:51.239Z,13.93
2022-10-10T23:08:19.072Z,13.94
2022-10-10T23:10:48.013Z,14.02
2022-10-10T23:13:17.191Z,14.09
2022-10-10T23:15:45.195Z,14.08
2022-10-10T23:18:13.105Z,14.09
2022-10-10T23:20:40.963Z,13.80
2022-10-10T23:23:08.868Z,14.10
2022-10-10T23:25:41.821Z,14.11
2022-10-10T23:28:10.151Z,14.16
2022-10-10T23:30:41.040Z,13.95
2022-10-10T23:33:09.267Z,14.26
2022-10-10T23:35:37.220Z,14.29
2022-10-10T23:38:05.311Z,14.30
2022-10-10T23:40:34.126Z,14.27
2022-10-10T23:43:02.122Z,14.35
2022-10-10T23:45:30.004Z,14.30
2022-10-10T23:47:59.269Z,14.42
2022-10-10T23:50:27.112Z,14.43
2022-10-10T23:52:54.946Z,14.46
2022-10-10T23:55:22.905Z,14.44
2022-10-10T23:57:50.764Z,14.42
